Dubrovnik, Croatia

04:07 PM CEST on Srpanj 26, 2016 (GMT +0200)
Cilipi | | Change Station

Elev 541 ft 42.56 °N, 18.27 °E | Updated 7 minutes ago

Light Rain
Slaba kiša
81 °F
Feels Like 82 °F
S
6
Vjetar Varijabla smjera vjetra Vjetar from ZSZ

Danas
High -- | Low -- °F
--% Chance of Precip.
Jučer
High -- | Low -- °F
Precip. -- u
Pritisak 29.89 u
Vidljivost 6.2 milja
Oblaci
Toplotni indeks 82 °F
Točka rose 64 °F
Vlažnost 58%
Kiša 0.00 u
Visina snijega Not available.
5:33 AM 8:13 PM
Zadnja četvrt, 54% visible
METAR LDDU 261400Z 29005KT 270V330 9999 -RA NSC 27/18 Q1012 NOSIG
Pritisak 29.89 u
Vidljivost 6.2 milja
Oblaci
Toplotni indeks 82 °F
Točka rose 64 °F
Vlažnost 58%
Kiša 0.00 u
Visina snijega Not available.
5:33 AM 8:13 PM
Zadnja četvrt, 54% visible
METAR LDDU 261400Z 29005KT 270V330 9999 -RA NSC 27/18 Q1012 NOSIG

10-Day Weather Forecast

×

Almanac

Astronomija

Jul. 26, 2016 Izlazak Zalazak
Trenutno vrijeme
Civilni sumrak
Nautički sumrak
Astronomski sumrak
Moon
Duljina trajanja vidljive svjetlosti
Duljina dana
Tomorrow will be .
, % of the Moon is Illuminated

Današnji ekstremi

Country Highs Country Lows

Community

WunderPhotos

Upload Photos

1,927,588 photos uploaded!

WunderBlog® & News

Nearby

Kvalitet zraka

  Kvalitet zraka AQ Index Zagadjenje
Not available.

Visina snijega

Station Depth Visina

Earthquake Activity

Grad Distance Mag. Time & Date
Minimum magnitude displayed is 2.5.

Coastal Water Temperatures

Mjesto Temperatura

Stations

Nearby Weather Stations

Lokacija stanice Temp. Subjektivni osjećaj Točka rose Vlažnost Vjetar Precip. Elev Ažurirano Tip